sensor_id;sensor_type;location;lat;lon;timestamp;pressure;altitude;pressure_sealevel;temperature;humidity
2268;BME280;11052;43.338;25.502;2023-04-03T00:00:37;99999.66;;;8.42;100.00
2268;BME280;11052;43.338;25.502;2023-04-03T00:03:04;99994.69;;;8.35;100.00
2268;BME280;11052;43.338;25.502;2023-04-03T00:05:31;99999.88;;;8.32;100.00
2268;BME280;11052;43.338;25.502;2023-04-03T00:08:00;99995.66;;;8.29;100.00
2268;BME280;11052;43.338;25.502;2023-04-03T00:10:30;100000.91;;;8.26;100.00
2268;BME280;11052;43.338;25.502;2023-04-03T00:12:57;100004.50;;;8.19;100.00
2268;BME280;11052;43.338;25.502;2023-04-03T00:15:24;100005.22;;;7.90;100.00
2268;BME280;11052;43.338;25.502;2023-04-03T00:17:51;100003.06;;;7.73;100.00
2268;BME280;11052;43.338;25.502;2023-04-03T00:20:18;100006.63;;;7.68;100.00
2268;BME280;11052;43.338;25.502;2023-04-03T00:22:45;100000.03;;;7.56;100.00
2268;BME280;11052;43.338;25.502;2023-04-03T00:25:14;99995.91;;;7.47;100.00
2268;BME280;11052;43.338;25.502;2023-04-03T00:27:41;99996.00;;;7.44;100.00
2268;BME280;11052;43.338;25.502;2023-04-03T00:30:10;99989.06;;;7.46;100.00
2268;BME280;11052;43.338;25.502;2023-04-03T00:32:39;99984.03;;;7.40;100.00
2268;BME280;11052;43.338;25.502;2023-04-03T00:35:07;99995.44;;;7.30;100.00
2268;BME280;11052;43.338;25.502;2023-04-03T00:37:34;99994.78;;;7.20;100.00
2268;BME280;11052;43.338;25.502;2023-04-03T00:40:02;99993.84;;;7.24;100.00
2268;BME280;11052;43.338;25.502;2023-04-03T00:42:31;99998.63;;;7.01;100.00
2268;BME280;11052;43.338;25.502;2023-04-03T00:45:30;99996.88;;;7.02;100.00
2268;BME280;11052;43.338;25.502;2023-04-03T00:47:59;99995.91;;;7.07;100.00
2268;BME280;11052;43.338;25.502;2023-04-03T00:50:27;99998.72;;;6.97;100.00
2268;BME280;11052;43.338;25.502;2023-04-03T00:52:56;99997.53;;;7.13;100.00
2268;BME280;11052;43.338;25.502;2023-04-03T00:55:23;99991.75;;;7.02;100.00
2268;BME280;11052;43.338;25.502;2023-04-03T00:57:52;99996.13;;;6.97;100.00
2268;BME280;11052;43.338;25.502;2023-04-03T01:00:22;100003.66;;;7.07;100.00
2268;BME280;11052;43.338;25.502;2023-04-03T01:02:51;100002.94;;;7.01;100.00
2268;BME280;11052;43.338;25.502;2023-04-03T01:05:19;99996.97;;;6.99;100.00
2268;BME280;11052;43.338;25.502;2023-04-03T01:07:47;99992.66;;;6.99;100.00
2268;BME280;11052;43.338;25.502;2023-04-03T01:10:16;99996.97;;;6.99;100.00
2268;BME280;11052;43.338;25.502;2023-04-03T01:12:46;100001.09;;;7.06;100.00
2268;BME280;11052;43.338;25.502;2023-04-03T01:15:18;99992.34;;;7.14;100.00
2268;BME280;11052;43.338;25.502;2023-04-03T01:17:47;99997.38;;;7.20;100.00
2268;BME280;11052;43.338;25.502;2023-04-03T01:20:44;100006.28;;;7.04;100.00
2268;BME280;11052;43.338;25.502;2023-04-03T01:23:22;100007.31;;;6.96;100.00
2268;BME280;11052;43.338;25.502;2023-04-03T01:25:53;100001.31;;;6.95;100.00
2268;BME280;11052;43.338;25.502;2023-04-03T01:28:23;100007.47;;;6.89;100.00
2268;BME280;11052;43.338;25.502;2023-04-03T01:30:58;99998.03;;;6.90;100.00
2268;BME280;11052;43.338;25.502;2023-04-03T01:33:29;99999.75;;;6.89;100.00
2268;BME280;11052;43.338;25.502;2023-04-03T01:35:56;100001.88;;;6.68;100.00
2268;BME280;11052;43.338;25.502;2023-04-03T01:38:23;100014.06;;;6.60;100.00
2268;BME280;11052;43.338;25.502;2023-04-03T01:40:51;100009.03;;;6.53;100.00
2268;BME280;11052;43.338;25.502;2023-04-03T01:43:18;100008.28;;;6.47;100.00
2268;BME280;11052;43.338;25.502;2023-04-03T01:45:45;100012.03;;;6.29;100.00
2268;BME280;11052;43.338;25.502;2023-04-03T01:48:15;100011.34;;;6.18;100.00
2268;BME280;11052;43.338;25.502;2023-04-03T01:50:43;100010.63;;;6.10;100.00
2268;BME280;11052;43.338;25.502;2023-04-03T01:53:10;100013.09;;;6.17;100.00
2268;BME280;11052;43.338;25.502;2023-04-03T01:55:37;100019.91;;;6.20;100.00
2268;BME280;11052;43.338;25.502;2023-04-03T01:58:05;100017.31;;;6.21;100.00
2268;BME280;11052;43.338;25.502;2023-04-03T02:00:32;100011.09;;;6.33;100.00
2268;BME280;11052;43.338;25.502;2023-04-03T02:02:59;100012.84;;;6.31;100.00
2268;BME280;11052;43.338;25.502;2023-04-03T02:05:26;100027.38;;;6.35;100.00
2268;BME280;11052;43.338;25.502;2023-04-03T02:07:54;100028.19;;;6.37;100.00
2268;BME280;11052;43.338;25.502;2023-04-03T02:10:22;100021.28;;;6.39;100.00
2268;BME280;11052;43.338;25.502;2023-04-03T02:12:49;100023.00;;;6.39;100.00
2268;BME280;11052;43.338;25.502;2023-04-03T02:15:16;100028.22;;;6.36;100.00
2268;BME280;11052;43.338;25.502;2023-04-03T02:17:43;100029.19;;;6.29;100.00
2268;BME280;11052;43.338;25.502;2023-04-03T02:20:11;100042.16;;;6.22;100.00
2268;BME280;11052;43.338;25.502;2023-04-03T02:22:38;100045.84;;;6.08;100.00
2268;BME280;11052;43.338;25.502;2023-04-03T02:25:07;100039.06;;;6.04;100.00
2268;BME280;11052;43.338;25.502;2023-04-03T02:27:35;100041.81;;;5.93;100.00
2268;BME280;11052;43.338;25.502;2023-04-03T02:30:02;100053.84;;;5.91;100.00
2268;BME280;11052;43.338;25.502;2023-04-03T02:32:29;100042.72;;;5.89;100.00
2268;BME280;11052;43.338;25.502;2023-04-03T02:34:57;100039.28;;;5.90;100.00
2268;BME280;11052;43.338;25.502;2023-04-03T02:37:24;100045.41;;;5.80;100.00
2268;BME280;11052;43.338;25.502;2023-04-03T02:39:51;100047.16;;;5.78;100.00
2268;BME280;11052;43.338;25.502;2023-04-03T02:42:20;100041.25;;;5.70;100.00
2268;BME280;11052;43.338;25.502;2023-04-03T02:44:47;100036.91;;;5.75;100.00
2268;BME280;11052;43.338;25.502;2023-04-03T02:47:14;100040.50;;;5.62;100.00
2268;BME280;11052;43.338;25.502;2023-04-03T02:49:42;100031.94;;;5.63;100.00
2268;BME280;11052;43.338;25.502;2023-04-03T02:52:11;100024.09;;;5.72;100.00
2268;BME280;11052;43.338;25.502;2023-04-03T02:54:38;100027.59;;;5.66;100.00
2268;BME280;11052;43.338;25.502;2023-04-03T02:57:05;100039.69;;;5.59;100.00
2268;BME280;11052;43.338;25.502;2023-04-03T02:59:35;100030.31;;;5.55;100.00
2268;BME280;11052;43.338;25.502;2023-04-03T03:02:06;100029.50;;;5.53;100.00
2268;BME280;11052;43.338;25.502;2023-04-03T03:04:33;100026.97;;;5.50;100.00
2268;BME280;11052;43.338;25.502;2023-04-03T03:07:00;100025.19;;;5.55;100.00
2268;BME280;11052;43.338;25.502;2023-04-03T03:09:28;100025.22;;;5.52;100.00
2268;BME280;11052;43.338;25.502;2023-04-03T03:11:55;100028.03;;;5.34;100.00
2268;BME280;11052;43.338;25.502;2023-04-03T03:14:22;100033.97;;;5.38;100.00
2268;BME280;11052;43.338;25.502;2023-04-03T03:16:51;100040.81;;;5.40;100.00
2268;BME280;11052;43.338;25.502;2023-04-03T03:19:18;100041.66;;;5.41;100.00
2268;BME280;11052;43.338;25.502;2023-04-03T03:21:45;100044.25;;;5.39;100.00
2268;BME280;11052;43.338;25.502;2023-04-03T03:24:12;100043.38;;;5.40;100.00
2268;BME280;11052;43.338;25.502;2023-04-03T03:26:39;100053.81;;;5.26;100.00
2268;BME280;11052;43.338;25.502;2023-04-03T03:29:06;100052.97;;;5.26;100.00
2268;BME280;11052;43.338;25.502;2023-04-03T03:31:34;100047.84;;;5.26;100.00
2268;BME280;11052;43.338;25.502;2023-04-03T03:34:02;100050.38;;;5.29;100.00
2268;BME280;11052;43.338;25.502;2023-04-03T03:36:30;100055.53;;;5.27;100.00
2268;BME280;11052;43.338;25.502;2023-04-03T03:38:57;100050.66;;;5.09;100.00
2268;BME280;11052;43.338;25.502;2023-04-03T03:41:24;100042.91;;;5.11;100.00
2268;BME280;11052;43.338;25.502;2023-04-03T03:43:51;100042.19;;;5.01;100.00
2268;BME280;11052;43.338;25.502;2023-04-03T03:46:18;100039.63;;;4.98;100.00
2268;BME280;11052;43.338;25.502;2023-04-03T03:48:45;100037.88;;;5.02;100.00
2268;BME280;11052;43.338;25.502;2023-04-03T03:51:14;100031.75;;;5.15;100.00
2268;BME280;11052;43.338;25.502;2023-04-03T03:53:42;100038.56;;;5.16;100.00
2268;BME280;11052;43.338;25.502;2023-04-03T03:56:09;100029.13;;;5.18;100.00
2268;BME280;11052;43.338;25.502;2023-04-03T03:58:36;100028.25;;;5.19;100.00
2268;BME280;11052;43.338;25.502;2023-04-03T04:01:04;100035.91;;;5.22;100.00
2268;BME280;11052;43.338;25.502;2023-04-03T04:03:32;100030.84;;;5.19;100.00
2268;BME280;11052;43.338;25.502;2023-04-03T04:05:59;100023.88;;;5.24;100.00
2268;BME280;11052;43.338;25.502;2023-04-03T04:08:27;100026.56;;;5.18;100.00
2268;BME280;11052;43.338;25.502;2023-04-03T04:10:54;100034.28;;;5.16;100.00
2268;BME280;11052;43.338;25.502;2023-04-03T04:13:22;100028.44;;;5.05;100.00
2268;BME280;11052;43.338;25.502;2023-04-03T04:15:49;100026.75;;;5.03;100.00
2268;BME280;11052;43.338;25.502;2023-04-03T04:18:16;100028.47;;;5.01;100.00
2268;BME280;11052;43.338;25.502;2023-04-03T04:20:46;100031.13;;;4.94;100.00
2268;BME280;11052;43.338;25.502;2023-04-03T04:23:13;100038.78;;;4.98;100.00
2268;BME280;11052;43.338;25.502;2023-04-03T04:25:44;100031.06;;;5.01;100.00
2268;BME280;11052;43.338;25.502;2023-04-03T04:28:11;100040.41;;;5.06;100.00
2268;BME280;11052;43.338;25.502;2023-04-03T04:30:38;100036.16;;;5.04;100.00
2268;BME280;11052;43.338;25.502;2023-04-03T04:33:05;100034.41;;;5.07;100.00
2268;BME280;11052;43.338;25.502;2023-04-03T04:35:32;100042.88;;;5.15;100.00
2268;BME280;11052;43.338;25.502;2023-04-03T04:38:00;100046.28;;;5.16;100.00
2268;BME280;11052;43.338;25.502;2023-04-03T04:40:28;100044.38;;;5.28;100.00
2268;BME280;11052;43.338;25.502;2023-04-03T04:42:57;100048.44;;;5.46;100.00
2268;BME280;11052;43.338;25.502;2023-04-03T04:45:24;100057.66;;;5.63;100.00
2268;BME280;11052;43.338;25.502;2023-04-03T04:47:51;100058.97;;;5.91;100.00
2268;BME280;11052;43.338;25.502;2023-04-03T04:50:18;100056.00;;;6.15;100.00
2268;BME280;11052;43.338;25.502;2023-04-03T04:52:46;100051.88;;;6.56;100.00
2268;BME280;11052;43.338;25.502;2023-04-03T04:55:13;100045.94;;;6.97;100.00
2268;BME280;11052;43.338;25.502;2023-04-03T04:57:40;100043.91;;;7.13;100.00
2268;BME280;11052;43.338;25.502;2023-04-03T05:00:10;100045.63;;;7.14;100.00
2268;BME280;11052;43.338;25.502;2023-04-03T05:02:37;100047.94;;;7.26;100.00
2268;BME280;11052;43.338;25.502;2023-04-03T05:05:05;100055.50;;;7.35;100.00
2268;BME280;11052;43.338;25.502;2023-04-03T05:07:32;100058.13;;;7.32;100.00
2268;BME280;11052;43.338;25.502;2023-04-03T05:10:01;100067.78;;;7.22;100.00
2268;BME280;11052;43.338;25.502;2023-04-03T05:12:29;100071.78;;;7.37;100.00
2268;BME280;11052;43.338;25.502;2023-04-03T05:14:56;100066.50;;;7.43;100.00
2268;BME280;11052;43.338;25.502;2023-04-03T05:17:24;100071.13;;;7.68;100.00
2268;BME280;11052;43.338;25.502;2023-04-03T05:19:52;100082.72;;;7.87;100.00
2268;BME280;11052;43.338;25.502;2023-04-03T05:22:19;100087.53;;;8.02;100.00
2268;BME280;11052;43.338;25.502;2023-04-03T05:24:46;100085.63;;;8.10;100.00
2268;BME280;11052;43.338;25.502;2023-04-03T05:27:13;100090.28;;;8.32;100.00
2268;BME280;11052;43.338;25.502;2023-04-03T05:29:40;100090.09;;;8.73;100.00
2268;BME280;11052;43.338;25.502;2023-04-03T05:32:09;100097.56;;;9.16;100.00
2268;BME280;11052;43.338;25.502;2023-04-03T05:34:38;100093.34;;;9.43;100.00
2268;BME280;11052;43.338;25.502;2023-04-03T05:37:05;100088.75;;;9.53;100.00
2268;BME280;11052;43.338;25.502;2023-04-03T05:39:32;100087.22;;;9.47;100.00
2268;BME280;11052;43.338;25.502;2023-04-03T05:41:59;100092.88;;;8.98;100.00
2268;BME280;11052;43.338;25.502;2023-04-03T05:44:26;100096.81;;;8.80;100.00
2268;BME280;11052;43.338;25.502;2023-04-03T05:46:53;100100.84;;;8.91;100.00
2268;BME280;11052;43.338;25.502;2023-04-03T05:49:20;100095.03;;;9.15;100.00
2268;BME280;11052;43.338;25.502;2023-04-03T05:51:49;100098.09;;;9.57;100.00
2268;BME280;11052;43.338;25.502;2023-04-03T05:54:19;100094.56;;;10.17;100.00
2268;BME280;11052;43.338;25.502;2023-04-03T05:56:48;100100.75;;;10.91;100.00
2268;BME280;11052;43.338;25.502;2023-04-03T05:59:16;100103.41;;;11.61;100.00
2268;BME280;11052;43.338;25.502;2023-04-03T06:01:44;100096.78;;;12.41;100.00
2268;BME280;11052;43.338;25.502;2023-04-03T06:04:11;100101.88;;;13.05;100.00
2268;BME280;11052;43.338;25.502;2023-04-03T06:06:44;100095.38;;;13.54;100.00
2268;BME280;11052;43.338;25.502;2023-04-03T06:09:13;100097.22;;;13.88;100.00
2268;BME280;11052;43.338;25.502;2023-04-03T06:11:41;100101.91;;;14.18;100.00
2268;BME280;11052;43.338;25.502;2023-04-03T06:14:09;100101.16;;;14.16;100.00
2268;BME280;11052;43.338;25.502;2023-04-03T06:16:36;100095.66;;;14.03;100.00
2268;BME280;11052;43.338;25.502;2023-04-03T06:19:03;100111.28;;;13.86;100.00
2268;BME280;11052;43.338;25.502;2023-04-03T06:21:31;100112.97;;;13.68;100.00
2268;BME280;11052;43.338;25.502;2023-04-03T06:23:59;100113.25;;;13.62;100.00
2268;BME280;11052;43.338;25.502;2023-04-03T06:26:27;100113.88;;;13.67;100.00
2268;BME280;11052;43.338;25.502;2023-04-03T06:28:55;100112.72;;;13.91;100.00
2268;BME280;11052;43.338;25.502;2023-04-03T06:31:22;100107.91;;;13.84;100.00
2268;BME280;11052;43.338;25.502;2023-04-03T06:33:49;100101.16;;;13.80;100.00
2268;BME280;11052;43.338;25.502;2023-04-03T06:36:18;100091.09;;;14.08;100.00
2268;BME280;11052;43.338;25.502;2023-04-03T06:38:47;100089.56;;;14.21;100.00
2268;BME280;11052;43.338;25.502;2023-04-03T06:41:14;100102.44;;;14.43;100.00
2268;BME280;11052;43.338;25.502;2023-04-03T06:43:43;100093.06;;;14.39;100.00
2268;BME280;11052;43.338;25.502;2023-04-03T06:46:14;100098.16;;;14.42;100.00
2268;BME280;11052;43.338;25.502;2023-04-03T06:48:42;100103.78;;;14.33;100.00
2268;BME280;11052;43.338;25.502;2023-04-03T06:51:16;100100.25;;;14.34;100.00
2268;BME280;11052;43.338;25.502;2023-04-03T06:53:44;100108.16;;;14.32;100.00
2268;BME280;11052;43.338;25.502;2023-04-03T06:56:12;100110.59;;;14.54;100.00
2268;BME280;11052;43.338;25.502;2023-04-03T06:58:39;100112.38;;;14.71;100.00
2268;BME280;11052;43.338;25.502;2023-04-03T07:01:08;100116.94;;;14.83;100.00
2268;BME280;11052;43.338;25.502;2023-04-03T07:03:36;100112.31;;;15.05;100.00
2268;BME280;11052;43.338;25.502;2023-04-03T07:06:03;100106.06;;;15.25;100.00
2268;BME280;11052;43.338;25.502;2023-04-03T07:08:31;100113.75;;;15.28;100.00
2268;BME280;11052;43.338;25.502;2023-04-03T07:11:01;100112.28;;;15.23;100.00
2268;BME280;11052;43.338;25.502;2023-04-03T07:13:28;100112.66;;;15.32;100.00
2268;BME280;11052;43.338;25.502;2023-04-03T07:15:56;100106.34;;;15.36;100.00
2268;BME280;11052;43.338;25.502;2023-04-03T07:18:24;100111.81;;;15.32;100.00
2268;BME280;11052;43.338;25.502;2023-04-03T07:20:52;100112.22;;;15.24;100.00
2268;BME280;11052;43.338;25.502;2023-04-03T07:23:19;100099.78;;;15.12;100.00
2268;BME280;11052;43.338;25.502;2023-04-03T07:25:47;100106.78;;;15.12;100.00
2268;BME280;11052;43.338;25.502;2023-04-03T07:28:17;100111.41;;;15.06;100.00
2268;BME280;11052;43.338;25.502;2023-04-03T07:30:44;100111.78;;;14.99;100.00
2268;BME280;11052;43.338;25.502;2023-04-03T07:33:13;100118.91;;;15.13;100.00
2268;BME280;11052;43.338;25.502;2023-04-03T07:35:42;100123.59;;;15.23;100.00
2268;BME280;11052;43.338;25.502;2023-04-03T07:38:10;100116.13;;;15.33;100.00
2268;BME280;11052;43.338;25.502;2023-04-03T07:40:37;100116.22;;;15.47;100.00
2268;BME280;11052;43.338;25.502;2023-04-03T07:43:05;100120.84;;;15.42;100.00
2268;BME280;11052;43.338;25.502;2023-04-03T07:45:34;100117.25;;;15.45;100.00
2268;BME280;11052;43.338;25.502;2023-04-03T07:48:02;100120.09;;;15.40;100.00
2268;BME280;11052;43.338;25.502;2023-04-03T07:50:29;100128.84;;;15.39;100.00
2268;BME280;11052;43.338;25.502;2023-04-03T07:52:59;100134.44;;;15.49;100.00
2268;BME280;11052;43.338;25.502;2023-04-03T07:55:26;100126.25;;;15.39;100.00
2268;BME280;11052;43.338;25.502;2023-04-03T07:57:53;100129.84;;;15.36;100.00
2268;BME280;11052;43.338;25.502;2023-04-03T08:00:21;100139.22;;;15.58;100.00
2268;BME280;11052;43.338;25.502;2023-04-03T08:02:48;100138.44;;;15.71;100.00
2268;BME280;11052;43.338;25.502;2023-04-03T08:05:17;100136.75;;;15.70;100.00
2268;BME280;11052;43.338;25.502;2023-04-03T08:07:44;100123.59;;;15.72;100.00
2268;BME280;11052;43.338;25.502;2023-04-03T08:10:14;100128.00;;;15.71;100.00
2268;BME280;11052;43.338;25.502;2023-04-03T08:12:41;100140.56;;;15.81;100.00
2268;BME280;11052;43.338;25.502;2023-04-03T08:15:09;100136.53;;;15.91;100.00
2268;BME280;11052;43.338;25.502;2023-04-03T08:17:37;100138.13;;;15.93;100.00
2268;BME280;11052;43.338;25.502;2023-04-03T08:20:07;100131.72;;;16.15;100.00
2268;BME280;11052;43.338;25.502;2023-04-03T08:22:35;100122.44;;;16.25;100.00
2268;BME280;11052;43.338;25.502;2023-04-03T08:25:02;100120.25;;;16.47;100.00
2268;BME280;11052;43.338;25.502;2023-04-03T08:27:31;100122.06;;;16.77;100.00
2268;BME280;11052;43.338;25.502;2023-04-03T08:29:58;100125.28;;;16.96;100.00
2268;BME280;11052;43.338;25.502;2023-04-03T08:32:25;100125.31;;;17.10;94.02
2268;BME280;11052;43.338;25.502;2023-04-03T08:34:52;100120.72;;;17.56;96.11
2268;BME280;11052;43.338;25.502;2023-04-03T08:37:19;100106.13;;;17.81;100.00
2268;BME280;11052;43.338;25.502;2023-04-03T08:39:47;100099.81;;;17.97;100.00
2268;BME280;11052;43.338;25.502;2023-04-03T08:42:17;100095.28;;;18.26;88.65
2268;BME280;11052;43.338;25.502;2023-04-03T08:44:54;100083.63;;;18.57;91.56
2268;BME280;11052;43.338;25.502;2023-04-03T08:47:24;100076.09;;;18.65;82.01
2268;BME280;11052;43.338;25.502;2023-04-03T08:49:55;100069.84;;;18.54;84.99
2268;BME280;11052;43.338;25.502;2023-04-03T08:52:30;100073.53;;;18.51;83.08
2268;BME280;11052;43.338;25.502;2023-04-03T08:55:00;100076.91;;;18.14;76.33
2268;BME280;11052;43.338;25.502;2023-04-03T08:57:30;100074.13;;;18.02;80.98
2268;BME280;11052;43.338;25.502;2023-04-03T09:00:15;100078.44;;;18.04;85.06
2268;BME280;11052;43.338;25.502;2023-04-03T09:02:44;100078.50;;;18.16;86.08
2268;BME280;11052;43.338;25.502;2023-04-03T09:05:14;100070.38;;;18.07;85.66
2268;BME280;11052;43.338;25.502;2023-04-03T09:07:44;100076.28;;;18.23;91.50
2268;BME280;11052;43.338;25.502;2023-04-03T09:10:14;100075.63;;;18.46;87.20
2268;BME280;11052;43.338;25.502;2023-04-03T09:12:44;100075.06;;;18.68;91.52
2268;BME280;11052;43.338;25.502;2023-04-03T09:15:19;100087.13;;;18.71;77.77
2268;BME280;11052;43.338;25.502;2023-04-03T09:17:55;100068.25;;;19.04;81.45
2268;BME280;11052;43.338;25.502;2023-04-03T09:20:35;100070.88;;;18.91;80.04
2268;BME280;11052;43.338;25.502;2023-04-03T09:23:13;100070.56;;;18.83;76.51
2268;BME280;11052;43.338;25.502;2023-04-03T09:25:42;100062.28;;;19.02;87.56
2268;BME280;11052;43.338;25.502;2023-04-03T09:28:10;100059.63;;;19.02;71.41
2268;BME280;11052;43.338;25.502;2023-04-03T09:30:39;100060.38;;;18.91;75.01
2268;BME280;11052;43.338;25.502;2023-04-03T09:33:06;100062.34;;;19.25;79.53
2268;BME280;11052;43.338;25.502;2023-04-03T09:35:35;100056.00;;;19.41;78.16
2268;BME280;11052;43.338;25.502;2023-04-03T09:38:16;100053.28;;;19.17;71.84
2268;BME280;11052;43.338;25.502;2023-04-03T09:40:45;100065.16;;;19.35;75.25
2268;BME280;11052;43.338;25.502;2023-04-03T09:43:27;100066.44;;;19.29;70.30
2268;BME280;11052;43.338;25.502;2023-04-03T09:48:50;100063.31;;;19.74;70.82
2268;BME280;11052;43.338;25.502;2023-04-03T09:51:18;100057.63;;;19.80;76.55
2268;BME280;11052;43.338;25.502;2023-04-03T09:53:45;100060.22;;;20.04;73.55
2268;BME280;11052;43.338;25.502;2023-04-03T09:56:21;100052.50;;;19.66;67.95
2268;BME280;11052;43.338;25.502;2023-04-03T09:58:50;100052.44;;;19.54;66.64
2268;BME280;11052;43.338;25.502;2023-04-03T10:01:27;100050.41;;;19.58;71.64
2268;BME280;11052;43.338;25.502;2023-04-03T10:04:07;100048.75;;;19.57;72.77
2268;BME280;11052;43.338;25.502;2023-04-03T10:06:37;100048.25;;;19.26;66.09
2268;BME280;11052;43.338;25.502;2023-04-03T10:09:16;100050.00;;;19.39;69.44
2268;BME280;11052;43.338;25.502;2023-04-03T10:11:59;100037.78;;;19.50;67.88
2268;BME280;11052;43.338;25.502;2023-04-03T10:14:27;100047.34;;;19.64;69.75
2268;BME280;11052;43.338;25.502;2023-04-03T10:17:03;100041.75;;;19.69;69.09
2268;BME280;11052;43.338;25.502;2023-04-03T10:19:40;100046.31;;;19.90;74.09
2268;BME280;11052;43.338;25.502;2023-04-03T10:22:18;100045.63;;;20.00;66.96
2268;BME280;11052;43.338;25.502;2023-04-03T10:24:55;100043.19;;;19.85;68.87
2268;BME280;11052;43.338;25.502;2023-04-03T10:27:37;100036.78;;;19.27;62.66
2268;BME280;11052;43.338;25.502;2023-04-03T10:30:20;100037.41;;;19.18;67.31
2268;BME280;11052;43.338;25.502;2023-04-03T10:32:59;100030.34;;;19.31;66.45
2268;BME280;11052;43.338;25.502;2023-04-03T10:35:39;100035.25;;;19.61;69.19
2268;BME280;11052;43.338;25.502;2023-04-03T10:38:14;100027.31;;;19.38;61.66
2268;BME280;11052;43.338;25.502;2023-04-03T10:40:49;100027.88;;;19.67;64.67
2268;BME280;11052;43.338;25.502;2023-04-03T10:43:25;100022.00;;;19.63;62.89
2268;BME280;11052;43.338;25.502;2023-04-03T10:46:01;100020.03;;;19.54;61.80
2268;BME280;11052;43.338;25.502;2023-04-03T10:48:48;100012.28;;;19.27;59.16
2268;BME280;11052;43.338;25.502;2023-04-03T10:51:25;100009.44;;;19.30;62.12
2268;BME280;11052;43.338;25.502;2023-04-03T10:53:57;100005.53;;;19.36;61.15
2268;BME280;11052;43.338;25.502;2023-04-03T10:56:32;100003.09;;;18.96;59.96
2268;BME280;11052;43.338;25.502;2023-04-03T10:59:13;99994.59;;;19.05;61.35
2268;BME280;11052;43.338;25.502;2023-04-03T11:01:45;99988.81;;;19.37;60.76
2268;BME280;11052;43.338;25.502;2023-04-03T11:04:14;99986.06;;;19.38;61.91
2268;BME280;11052;43.338;25.502;2023-04-03T11:06:45;99980.56;;;19.17;59.36
2268;BME280;11052;43.338;25.502;2023-04-03T11:09:19;99979.56;;;18.94;59.01
2268;BME280;11052;43.338;25.502;2023-04-03T11:11:52;99976.75;;;18.85;61.09
2268;BME280;11052;43.338;25.502;2023-04-03T11:14:26;99974.63;;;19.03;62.13
2268;BME280;11052;43.338;25.502;2023-04-03T11:17:05;99976.44;;;18.77;61.64
2268;BME280;11052;43.338;25.502;2023-04-03T11:19:40;99973.88;;;18.50;61.10
2268;BME280;11052;43.338;25.502;2023-04-03T11:22:16;99968.25;;;18.04;64.70
2268;BME280;11052;43.338;25.502;2023-04-03T11:24:53;99967.16;;;17.81;65.14
2268;BME280;11052;43.338;25.502;2023-04-03T11:27:25;99970.06;;;17.35;64.95
2268;BME280;11052;43.338;25.502;2023-04-03T11:29:57;99964.47;;;17.68;66.74
2268;BME280;11052;43.338;25.502;2023-04-03T11:32:48;99963.25;;;17.74;68.91
2268;BME280;11052;43.338;25.502;2023-04-03T11:35:21;99955.03;;;17.51;67.41
2268;BME280;11052;43.338;25.502;2023-04-03T11:37:51;99960.34;;;17.64;64.88
2268;BME280;11052;43.338;25.502;2023-04-03T11:40:23;99953.63;;;17.60;67.09
2268;BME280;11052;43.338;25.502;2023-04-03T11:42:53;99950.25;;;17.58;68.37
2268;BME280;11052;43.338;25.502;2023-04-03T11:45:40;99943.56;;;17.40;67.94
2268;BME280;11052;43.338;25.502;2023-04-03T11:48:48;99949.16;;;17.48;70.98
2268;BME280;11052;43.338;25.502;2023-04-03T11:51:39;99948.56;;;17.57;72.25
2268;BME280;11052;43.338;25.502;2023-04-03T11:54:36;99934.88;;;17.93;72.33
2268;BME280;11052;43.338;25.502;2023-04-03T12:03:30;99932.13;;;17.82;71.95
2268;BME280;11052;43.338;25.502;2023-04-03T12:09:26;99937.06;;;17.86;67.48
2268;BME280;11052;43.338;25.502;2023-04-03T12:11:54;99942.91;;;17.77;67.67
2268;BME280;11052;43.338;25.502;2023-04-03T12:14:23;99937.88;;;17.60;70.65
2268;BME280;11052;43.338;25.502;2023-04-03T12:16:52;99933.69;;;17.57;65.46
2268;BME280;11052;43.338;25.502;2023-04-03T12:19:36;99941.75;;;17.54;68.38
2268;BME280;11052;43.338;25.502;2023-04-03T12:22:09;99942.78;;;17.66;66.95
2268;BME280;11052;43.338;25.502;2023-04-03T12:24:39;99938.16;;;17.69;64.66
2268;BME280;11052;43.338;25.502;2023-04-03T12:30:13;99924.97;;;17.57;65.93
2268;BME280;11052;43.338;25.502;2023-04-03T12:33:11;99919.34;;;17.63;67.78
2268;BME280;11052;43.338;25.502;2023-04-03T12:35:51;99927.41;;;17.60;66.27
2268;BME280;11052;43.338;25.502;2023-04-03T12:38:41;99915.19;;;17.46;66.24
2268;BME280;11052;43.338;25.502;2023-04-03T12:41:26;99918.38;;;17.24;66.12
2268;BME280;11052;43.338;25.502;2023-04-03T12:44:23;99918.41;;;17.10;67.54
2268;BME280;11052;43.338;25.502;2023-04-03T12:46:54;99924.00;;;17.18;68.82
2268;BME280;11052;43.338;25.502;2023-04-03T12:49:31;99930.16;;;17.31;68.23
2268;BME280;11052;43.338;25.502;2023-04-03T12:52:03;99921.44;;;17.31;67.92
2268;BME280;11052;43.338;25.502;2023-04-03T12:54:34;99927.28;;;17.34;66.18
2268;BME280;11052;43.338;25.502;2023-04-03T12:57:12;99926.06;;;17.40;66.74
2268;BME280;11052;43.338;25.502;2023-04-03T12:59:39;99929.53;;;17.41;67.83
2268;BME280;11052;43.338;25.502;2023-04-03T13:02:20;99920.19;;;17.63;69.45
2268;BME280;11052;43.338;25.502;2023-04-03T13:04:49;99913.16;;;17.64;67.04
2268;BME280;11052;43.338;25.502;2023-04-03T13:07:21;99908.31;;;17.58;65.96
2268;BME280;11052;43.338;25.502;2023-04-03T13:09:58;99908.00;;;17.62;68.17
2268;BME280;11052;43.338;25.502;2023-04-03T13:12:26;99909.66;;;17.51;68.49
2268;BME280;11052;43.338;25.502;2023-04-03T13:14:55;99906.34;;;17.34;66.06
2268;BME280;11052;43.338;25.502;2023-04-03T13:17:25;99898.09;;;17.41;68.30
2268;BME280;11052;43.338;25.502;2023-04-03T13:19:53;99902.78;;;17.35;69.91
2268;BME280;11052;43.338;25.502;2023-04-03T13:22:27;99898.44;;;17.22;70.29